Data for 11/18/2006

Time Sea-Level Adjusted Pressure Absolute Pressure Temperature Relative Humidity Dew Point   
(mb) (inHg) (mb) (inHg) (C) (F) (%) (C) (F)
00:05 1020 30.12 850 25.1 0.5 32.9 58 -6.8 19.8
00:10 1020 30.12 850 25.1 0.5 33 59 -6.6 20.2
00:15 1020 30.12 850 25.1 0.3 32.6 61 -6.3 20.7
00:20 1020 30.12 849 25.07 0.3 32.6 62 -6.2 20.9
00:25 1020 30.12 849 25.07 0.4 32.7 62 -6 21.1
00:30 1020 30.12 849 25.07 0.2 32.4 63 -6 21.1
00:35 1020 30.12 849 25.07 0.2 32.3 62 -6.3 20.7
00:40 1020 30.12 849 25.07 0.4 32.6 62 -6.2 20.9
00:45 1020 30.12 849 25.07 0.3 32.5 62 -6.1 20.9
00:50 1020 30.12 849 25.07 0.2 32.3 62 -6.2 20.9
00:55 1020 30.12 849 25.07 0 32.1 63 -6.1 21
01:00 1020 30.12 849 25.07 -0 32 64 -6.1 21
01:05 1020 30.12 849 25.07 -0.1 31.9 63 -6.2 20.8
01:10 1020 30.12 850 25.1 -0.2 31.6 64 -6.1 21
01:15 1020 30.12 850 25.1 -0.3 31.5 64 -6.2 20.9
01:20 1020 30.12 849 25.07 -0.2 31.7 63 -6.3 20.6
01:25 1020 30.12 850 25.1 -0.1 31.7 63 -6.4 20.6
01:30 1020 30.12 850 25.1 0.1 32.2 61 -6.5 20.3
01:35 1020 30.12 850 25.1 0.4 32.7 60 -6.6 20.1
01:40 1020 30.12 850 25.1 0.5 33 59 -6.5 20.3
01:45 1020 30.12 850 25.1 0.5 33 59 -6.5 20.3
01:50 1020 30.12 850 25.1 0.6 33 59 -6.6 20
01:55 1021 30.15 850 25.1 0.6 33.1 58 -6.6 20.1
02:00 1021 30.15 850 25.1 0.5 32.9 60 -6.4 20.4
02:05 1021 30.15 850 25.1 0.4 32.8 61 -6.3 20.6
02:10 1021 30.15 850 25.1 0.5 32.8 60 -6.4 20.5
02:15 1021 30.15 850 25.1 0.2 32.4 62 -6.3 20.7
02:20 1021 30.15 850 25.1 -0 32 62 -6.4 20.5
02:25 1021 30.15 850 25.1 -0 31.9 63 -6.2 20.8
02:30 1021 30.15 850 25.1 0.1 32.2 61 -6.5 20.3
02:35 1021 30.15 850 25.1 0.1 32.2 63 -6.1 21
02:40 1021 30.15 850 25.1 -0.4 31.2 65 -6.3 20.7
02:45 1021 30.15 850 25.1 -0.3 31.5 64 -6.2 20.9
02:50 1021 30.15 850 25.1 -0.5 31.2 65 -6.2 20.8
02:55 1021 30.15 850 25.1 -0.6 30.9 66 -6.1 21
03:00 1021 30.15 850 25.1 -0.5 31.1 66 -6.1 21
03:05 1021 30.15 850 25.1 -0.6 30.9 66 -6.1 20.9
03:10 1021 30.15 851 25.13 -0.5 31 65 -6.3 20.6
03:15 1021 30.15 851 25.13 -0.4 31.3 65 -6.2 20.8
03:20 1021 30.15 851 25.13 -0.5 31.1 66 -6.1 21.1
03:25 1021 30.15 851 25.13 -1.1 29.9 70 -5.9 21.4
03:30 1022 30.18 851 25.13 -1.4 29.4 70 -6.2 20.8
03:35 1021 30.15 851 25.13 -1.1 30 69 -6 21.2
03:40 1022 30.18 851 25.13 -1.2 29.8 69 -6.2 20.8
03:45 1022 30.18 851 25.13 -1 30.2 67 -6.3 20.7
03:50 1022 30.18 851 25.13 -0.7 30.8 64 -6.7 19.9
03:55 1022 30.18 851 25.13 -0.4 31.3 63 -6.7 19.9
04:00 1022 30.18 851 25.13 -0.1 31.8 61 -6.7 20
04:05 1022 30.18 851 25.13 0.4 32.7 61 -6.3 20.6
04:10 1022 30.18 851 25.13 0.3 32.5 61 -6.4 20.5
04:15 1022 30.18 851 25.13 0.1 32.2 62 -6.3 20.7
04:20 1022 30.18 851 25.13 0 32 63 -6.2 20.8
04:25 1022 30.18 851 25.13 0.1 32.2 65 -5.8 21.5
04:30 1022 30.18 851 25.13 0.1 32.1 66 -5.6 21.9
04:35 1022 30.18 851 25.13 0.1 32.1 65 -5.7 21.7
04:40 1022 30.18 851 25.13 0.1 32.2 66 -5.5 22
04:45 1022 30.18 851 25.13 0.4 32.8 64 -5.5 22.1
04:50 1022 30.18 851 25.13 0.2 32.4 65 -5.5 22.1
04:55 1022 30.18 851 25.13 -0.3 31.4 68 -5.5 22.1
05:00 1022 30.18 851 25.13 -0.7 30.8 69 -5.6 21.9
05:05 1022 30.18 851 25.13 -1.2 29.8 73 -5.4 22.3
05:10 1022 30.18 851 25.13 -1.2 29.8 73 -5.5 22.1
05:15 1022 30.18 851 25.13 -0.9 30.3 70 -5.7 21.8
05:20 1022 30.18 851 25.13 -0.7 30.8 70 -5.5 22
05:25 1022 30.18 851 25.13 -0.5 31 70 -5.4 22.3
05:30 1022 30.18 851 25.13 -0.3 31.4 68 -5.6 22
05:35 1022 30.18 851 25.13 -0.1 31.8 67 -5.5 22.1
05:40 1022 30.18 851 25.13 0.1 32.2 65 -5.7 21.8
05:45 1022 30.18 851 25.13 0.2 32.4 65 -5.6 22
05:50 1022 30.18 851 25.13 0.2 32.3 65 -5.7 21.7
05:55 1022 30.18 852 25.16 0.1 32.2 65 -5.6 21.9
06:00 1023 30.21 852 25.16 -0 32 67 -5.5 22.1
06:05 1023 30.21 852 25.16 0.1 32.1 65 -5.7 21.8
06:10 1023 30.21 852 25.16 0.1 32.2 65 -5.7 21.7
06:15 1023 30.21 852 25.16 0.1 32.2 64 -5.9 21.4
06:20 1023 30.21 852 25.16 0.1 32.1 65 -5.8 21.6
06:25 1023 30.21 852 25.16 0.1 32.2 66 -5.5 22
06:30 1023 30.21 852 25.16 0.2 32.3 65 -5.6 21.9
06:35 1023 30.21 852 25.16 0.2 32.3 65 -5.7 21.8
06:40 1023 30.21 852 25.16 -0.1 31.9 66 -5.6 21.9
06:45 1023 30.21 852 25.16 -0.1 31.9 67 -5.4 22.2
06:50 1023 30.21 852 25.16 -0.2 31.7 66 -5.8 21.5
06:55 1023 30.21 852 25.16 -0.1 31.7 67 -5.5 22.1
07:00 1023 30.21 852 25.16 -0.2 31.6 68 -5.4 22.2
07:05 1023 30.21 852 25.16 -0 31.9 66 -5.6 22
07:10 1023 30.21 852 25.16 0.1 32.2 66 -5.5 22.2
07:15 1023 30.21 852 25.16 0.1 32.2 66 -5.4 22.3
07:20 1023 30.21 852 25.16 0.1 32.2 67 -5.3 22.5
07:25 1023 30.21 852 25.16 -0.1 31.9 69 -5.1 22.9
07:30 1023 30.21 852 25.16 -0.3 31.4 70 -5.2 22.7
07:35 1023 30.21 852 25.16 -0.6 31 70 -5.4 22.2
07:40 1023 30.21 852 25.16 -0.5 31.1 70 -5.4 22.3
07:45 1023 30.21 853 25.19 -0.9 30.4 71 -5.4 22.2
07:50 1023 30.21 853 25.19 -1.1 30.1 72 -5.5 22.1
07:55 1023 30.21 853 25.19 -1.1 30 72 -5.6 22
08:00 1023 30.21 853 25.19 -0.9 30.5 70 -5.7 21.7
08:05 1023 30.21 853 25.19 -0.5 31.1 69 -5.6 22
08:10 1023 30.21 853 25.19 -0.3 31.4 68 -5.5 22.2
08:15 1024 30.24 853 25.19 -0.2 31.6 68 -5.4 22.3
08:20 1024 30.24 853 25.19 -0.2 31.7 67 -5.5 22
08:25 1024 30.24 853 25.19 -0.4 31.3 68 -5.6 21.9
08:30 1024 30.24 853 25.19 -0.3 31.5 67 -5.6 21.9
08:35 1024 30.24 853 25.19 -0.3 31.5 68 -5.4 22.2
08:40 1024 30.24 853 25.19 -0.2 31.6 67 -5.6 21.9
08:45 1024 30.24 853 25.19 0.4 32.7 65 -5.5 22.1
08:50 1024 30.24 853 25.19 0.9 33.7 63 -5.4 22.2
08:55 1024 30.24 853 25.19 1 33.8 63 -5.2 22.6
09:00 1024 30.24 853 25.19 1.3 34.4 61 -5.4 22.2
09:05 1024 30.24 853 25.19 1.6 34.9 59 -5.5 22.1
09:10 1024 30.24 853 25.19 1.9 35.5 58 -5.4 22.2
09:15 1024 30.24 853 25.19 2.6 36.6 56 -5.4 22.2
09:20 1024 30.24 853 25.19 2.9 37.2 55 -5.4 22.4
09:25 1024 30.24 853 25.19 3.5 38.3 52 -5.4 22.2
09:30 1024 30.24 853 25.19 4.6 40.3 50 -5 23
09:35 1024 30.24 854 25.22 5.4 41.7 47 -5 23
09:40 1024 30.24 854 25.22 5.4 41.7 49 -4.6 23.7
09:45 1025 30.27 854 25.22 5.5 41.9 48 -4.7 23.5
09:50 1025 30.27 854 25.22 5.8 42.4 46 -4.9 23.1
09:55 1025 30.27 854 25.22 5.9 42.6 47 -4.7 23.5
10:00 1025 30.27 854 25.22 6.2 43.2 45 -4.9 23.1
10:05 1025 30.27 854 25.22 6.3 43.4 45 -4.8 23.3
10:10 1025 30.27 854 25.22 6.2 43.1 45 -4.8 23.3
10:15 1025 30.27 854 25.22 6.5 43.7 44 -4.7 23.5
10:20 1025 30.27 854 25.22 6.8 44.3 44 -4.7 23.6
10:25 1025 30.27 855 25.25 7 44.6 43 -4.7 23.5
10:30 1025 30.27 855 25.25 6.7 44.1 44 -4.6 23.8
10:35 1026 30.3 855 25.25 6.5 43.8 45 -4.7 23.6
10:40 1026 30.3 855 25.25 6.7 44.1 45 -4.4 24.1
10:45 1026 30.3 855 25.25 7.2 45 45 -4 24.9
10:50 1026 30.3 855 25.25 6.7 44.1 47 -3.8 25.1
10:55 1026 30.3 855 25.25 6.8 44.3 47 -3.8 25.2
11:00 1026 30.3 855 25.25 7.5 45.4 43 -4.2 24.5
11:05 1026 30.3 855 25.25 7.4 45.3 43 -4.5 24
11:10 1026 30.3 855 25.25 7.4 45.4 44 -4 24.7
11:15 1025 30.27 855 25.25 7.3 45.1 44 -4.3 24.3
11:20 1026 30.3 855 25.25 7.4 45.2 42 -4.6 23.7
11:25 1026 30.3 855 25.25 7.5 45.5 41 -4.7 23.5
11:30 1025 30.27 855 25.25 7.9 46.1 41 -4.7 23.5
11:35 1025 30.27 855 25.25 7.5 45.5 43 -4.2 24.4
11:40 1025 30.27 855 25.25 6.9 44.5 43 -4.8 23.3
11:45 1025 30.27 855 25.25 7.7 45.8 38 -5.6 21.9
11:50 1025 30.27 854 25.22 8.5 47.3 35 -6 21.2
11:55 1025 30.27 854 25.22 8.8 47.8 35 -5.8 21.6
12:00 1025 30.27 854 25.22 7.9 46.2 38 -5.5 22.1
12:05 1025 30.27 854 25.22 6.9 44.4 41 -5.5 22.2
12:10 1025 30.27 854 25.22 7.6 45.7 38 -5.8 21.5
12:15 1025 30.27 854 25.22 8.3 46.9 36 -6 21.2
12:20 1025 30.27 854 25.22 7.8 46 38 -5.5 22.1
12:25 1025 30.27 854 25.22 7.8 46.1 37 -5.8 21.5
12:30 1025 30.27 854 25.22 7 44.5 40 -5.8 21.5
12:35 1025 30.27 854 25.22 7.2 44.9 39 -5.9 21.3
12:40 1025 30.27 854 25.22 7.2 44.9 38 -6.1 21.1
12:45 1025 30.27 854 25.22 7.6 45.6 37 -6 21.1
12:50 1025 30.27 854 25.22 6.8 44.3 40 -5.9 21.5
12:55 1025 30.27 854 25.22 6.8 44.2 39 -6.2 20.9
13:00 1025 30.27 854 25.22 7.2 44.9 37 -6.5 20.3
13:05 1025 30.27 854 25.22 7.8 46.1 37 -5.9 21.3
13:10 1025 30.27 854 25.22 7.5 45.4 36 -6.6 20.1
13:15 1025 30.27 854 25.22 7.9 46.3 35 -6.7 20
13:20 1025 30.27 854 25.22 9.2 48.5 33 -6.3 20.7
13:25 1025 30.27 854 25.22 8.4 47.2 34 -6.7 20
13:30 1025 30.27 854 25.22 8 46.4 36 -6.1 21.1
13:35 1025 30.27 854 25.22 8.2 46.7 35 -6.5 20.3
13:40 1025 30.27 854 25.22 9.1 48.3 33 -6.5 20.4
13:45 1025 30.27 854 25.22 9.1 48.3 34 -6.1 21
13:50 1025 30.27 854 25.22 8.1 46.6 36 -6.2 20.8
13:55 1025 30.27 854 25.22 7 44.7 37 -6.8 19.8
14:00 1025 30.27 854 25.22 7.1 44.7 35 -7.3 18.8
14:05 1025 30.27 854 25.22 8.3 47 33 -6.9 19.6
14:10 1025 30.27 854 25.22 9.2 48.6 33 -6.4 20.5
14:15 1025 30.27 854 25.22 8.8 47.8 33 -6.7 20
14:20 1025 30.27 854 25.22 8.2 46.8 33 -7 19.5
14:25 1025 30.27 854 25.22 8.7 47.7 33 -6.6 20.2
14:30 1025 30.27 854 25.22 8.8 47.8 33 -6.7 20
14:35 1025 30.27 854 25.22 9.1 48.3 32 -6.8 19.8
14:40 1025 30.27 854 25.22 8.9 47.9 33 -6.5 20.2
14:45 1025 30.27 854 25.22 8.6 47.5 34 -6.2 20.8
14:50 1025 30.27 854 25.22 8.1 46.6 33 -7.1 19.2
14:55 1025 30.27 854 25.22 7.7 45.9 36 -6.6 20.1
15:00 1025 30.27 854 25.22 8.3 46.9 33 -7.2 19.1
15:05 1025 30.27 854 25.22 7.8 46.1 35 -6.5 20.2
15:10 1025 30.27 854 25.22 7.6 45.7 34 -7.1 19.3
15:15 1025 30.27 854 25.22 7.9 46.2 35 -6.7 20
15:20 1025 30.27 854 25.22 8.5 47.3 33 -7 19.5
15:25 1025 30.27 854 25.22 8.5 47.2 33 -6.7 19.9
15:30 1025 30.27 854 25.22 9 48.2 33 -6.3 20.6
15:35 1025 30.27 854 25.22 7.9 46.3 35 -6.6 20
15:40 1025 30.27 854 25.22 8 46.3 35 -6.7 20
15:45 1025 30.27 854 25.22 7.7 45.9 35 -6.7 19.9
15:50 1025 30.27 854 25.22 7.6 45.6 35 -6.9 19.7
15:55 1025 30.27 854 25.22 8 46.5 34 -6.8 19.8
16:00 1025 30.27 854 25.22 8.1 46.7 34 -6.7 20
16:05 1025 30.27 854 25.22 8.5 47.3 34 -6.6 20
16:10 1025 30.27 855 25.25 8.7 47.6 33 -6.6 20.2
16:15 1026 30.3 855 25.25 8.6 47.4 34 -6.5 20.2
16:20 1026 30.3 855 25.25 8 46.4 35 -6.6 20.1
16:25 1026 30.3 855 25.25 8 46.4 35 -6.6 20.2
16:30 1026 30.3 855 25.25 8 46.3 35 -6.6 20.2
16:35 1026 30.3 855 25.25 7.7 45.9 36 -6.5 20.3
16:40 1026 30.3 855 25.25 7.6 45.7 37 -6.2 20.9
16:45 1026 30.3 855 25.25 7.2 44.9 39 -6 21.2
16:50 1026 30.3 855 25.25 6.8 44.2 39 -6.1 20.9
16:55 1026 30.3 855 25.25 6.3 43.4 43 -5.3 22.5
17:00 1026 30.3 855 25.25 5.1 41.1 49 -4.7 23.5
17:05 1026 30.3 855 25.25 4.2 39.6 52 -4.7 23.5
17:10 1026 30.3 855 25.25 3.3 38 56 -4.6 23.7
17:15 1026 30.3 855 25.25 3 37.4 57 -4.7 23.6
17:20 1026 30.3 855 25.25 2.4 36.4 59 -4.9 23.2
17:25 1026 30.3 855 25.25 2.5 36.4 57 -5.1 22.8
17:30 1026 30.3 855 25.25 2.5 36.5 58 -5 23
17:35 1026 30.3 855 25.25 2.1 35.8 59 -5 23
17:40 1026 30.3 855 25.25 1.8 35.3 61 -4.9 23.2
17:45 1026 30.3 856 25.28 1.7 35 61 -5.1 22.8
17:50 1026 30.3 856 25.28 1.6 34.9 62 -4.9 23.2
17:55 1027 30.33 856 25.28 1.2 34.2 63 -5.1 22.9
18:00 1027 30.33 856 25.28 1.3 34.4 62 -5.2 22.7
18:05 1027 30.33 856 25.28 1.1 34 63 -5.1 22.9
18:10 1027 30.33 856 25.28 0.8 33.5 64 -5.2 22.6
18:15 1027 30.33 856 25.28 0.8 33.4 64 -5.2 22.6
18:20 1027 30.33 856 25.28 0.6 33.1 64 -5.4 22.3
18:25 1027 30.33 856 25.28 0.5 32.9 64 -5.6 22
18:30 1027 30.33 856 25.28 0.5 33 63 -5.7 21.7
18:35 1027 30.33 856 25.28 0.8 33.4 62 -5.8 21.6
18:40 1027 30.33 856 25.28 1 33.7 61 -5.7 21.7
18:45 1027 30.33 856 25.28 0.9 33.7 62 -5.6 21.9
18:50 1027 30.33 856 25.28 0.8 33.4 63 -5.5 22.1
18:55 1027 30.33 856 25.28 0.6 33 62 -5.8 21.6
19:00 1027 30.33 856 25.28 0.7 33.2 62 -5.7 21.7
19:05 1026 30.3 856 25.28 0.6 33.1 63 -5.6 21.9
19:10 1026 30.3 856 25.28 0.6 33 62 -5.9 21.4
19:15 1026 30.3 856 25.28 0.4 32.8 64 -5.6 22
19:20 1026 30.3 856 25.28 0.3 32.5 64 -5.8 21.6
19:25 1026 30.3 856 25.28 0.4 32.7 63 -5.8 21.6
19:30 1026 30.3 856 25.28 0.2 32.3 66 -5.5 22.1
19:35 1026 30.3 856 25.28 0.1 32.2 64 -5.9 21.4
19:40 1027 30.33 856 25.28 0.6 33.1 62 -5.9 21.5
19:45 1027 30.33 856 25.28 0.6 33.1 63 -5.6 22
19:50 1027 30.33 856 25.28 0.3 32.6 64 -5.7 21.7
19:55 1027 30.33 856 25.28 0.4 32.7 62 -6 21.2
20:00 1027 30.33 856 25.28 0.8 33.4 60 -6.1 21
20:05 1027 30.33 856 25.28 1.2 34.1 57 -6.4 20.5
20:10 1026 30.3 856 25.28 1.2 34.2 59 -5.9 21.3
20:15 1027 30.33 856 25.28 0.7 33.2 62 -5.9 21.4
20:20 1026 30.3 856 25.28 0.3 32.6 62 -6.2 20.9
20:25 1026 30.3 856 25.28 0.3 32.6 62 -6.2 20.9
20:30 1027 30.33 856 25.28 0.3 32.5 61 -6.3 20.7
20:35 1027 30.33 856 25.28 0.8 33.4 58 -6.5 20.3
20:40 1027 30.33 856 25.28 0.7 33.3 59 -6.4 20.5
20:45 1027 30.33 856 25.28 0.6 33 58 -6.7 20
20:50 1027 30.33 856 25.28 0.6 33.1 59 -6.6 20.2
20:55 1027 30.33 856 25.28 0.6 33.1 57 -6.9 19.6
21:00 1027 30.33 856 25.28 0.5 33 58 -6.9 19.6
21:05 1027 30.33 856 25.28 0.7 33.3 56 -7 19.4
21:10 1027 30.33 856 25.28 1.1 34.1 56 -6.8 19.8
21:15 1027 30.33 856 25.28 1.2 34.1 55 -7 19.4
21:20 1027 30.33 856 25.28 1.2 34.1 54 -7.2 19
21:25 1027 30.33 857 25.31 1.3 34.4 52 -7.4 18.7
21:30 1027 30.33 857 25.31 1.2 34.2 52 -7.6 18.4
21:35 1027 30.33 857 25.31 1.1 34.1 52 -7.5 18.4
21:40 1027 30.33 857 25.31 1 33.8 53 -7.6 18.4
21:45 1027 30.33 857 25.31 1 33.8 54 -7.4 18.7
21:50 1027 30.33 857 25.31 1.1 34.1 52 -7.7 18.1
21:55 1027 30.33 857 25.31 1.2 34.1 51 -7.8 17.9
22:00 1027 30.33 857 25.31 1.2 34.1 50 -8 17.5
22:05 1027 30.33 857 25.31 1 33.9 52 -7.8 18
22:10 1027 30.33 857 25.31 0.5 32.9 53 -8.1 17.4
22:15 1027 30.33 857 25.31 0.7 33.2 50 -8.5 16.7
22:20 1027 30.33 857 25.31 0.9 33.7 50 -8.3 17.1
22:25 1027 30.33 857 25.31 0.9 33.7 52 -7.9 17.8
22:30 1027 30.33 857 25.31 1 33.8 51 -8 17.6
22:35 1027 30.33 857 25.31 0.6 33 53 -7.9 17.7
22:40 1027 30.33 857 25.31 0.2 32.3 54 -8.1 17.5
22:45 1027 30.33 857 25.31 0 32 55 -8.1 17.5
22:50 1027 30.33 857 25.31 0.1 32.1 54 -8.1 17.4
22:55 1027 30.33 857 25.31 -0.1 31.9 53 -8.4 16.9
23:00 1027 30.33 857 25.31 0.1 32.2 53 -8.4 16.9
23:05 1027 30.33 857 25.31 0.5 32.9 52 -8.2 17.3
23:10 1027 30.33 856 25.28 0.7 33.2 51 -8.3 17
23:15 1027 30.33 856 25.28 1.2 34.2 49 -8.3 17
23:20 1027 30.33 857 25.31 1.1 34 51 -7.9 17.8
23:25 1027 30.33 857 25.31 0.5 32.9 54 -7.9 17.8
23:30 1027 30.33 857 25.31 0.3 32.5 53 -8.2 17.3
23:35 1027 30.33 856 25.28 0.4 32.7 52 -8.3 17
23:40 1027 30.33 856 25.28 0.2 32.3 53 -8.4 16.9
23:45 1027 30.33 856 25.28 0.1 32.2 52 -8.6 16.4
23:50 1027 30.33 856 25.28 0.5 32.9 50 -8.8 16.2
23:55 1027 30.33 856 25.28 0.8 33.4 50 -8.6 16.5
24:00 1027 30.33 856 25.28 0.8 33.5 51 -8.1 17.4